sensor_id;sensor_type;location;lat;lon;timestamp;P1;durP1;ratioP1;P2;durP2;ratioP2
71298;SDS011;59083;47.974;21.722;2023-04-09T00:01:23;17.93;;;8.93;;
71298;SDS011;59083;47.974;21.722;2023-04-09T00:04:24;16.00;;;8.90;;
71298;SDS011;59083;47.974;21.722;2023-04-09T00:07:25;18.55;;;9.45;;
71298;SDS011;59083;47.974;21.722;2023-04-09T00:10:26;18.23;;;9.38;;
71298;SDS011;59083;47.974;21.722;2023-04-09T00:13:27;19.33;;;9.20;;
71298;SDS011;59083;47.974;21.722;2023-04-09T00:16:29;15.83;;;9.20;;
71298;SDS011;59083;47.974;21.722;2023-04-09T00:19:30;17.23;;;9.43;;
71298;SDS011;59083;47.974;21.722;2023-04-09T00:22:31;15.93;;;9.02;;
71298;SDS011;59083;47.974;21.722;2023-04-09T00:25:32;16.40;;;9.07;;
71298;SDS011;59083;47.974;21.722;2023-04-09T00:28:34;17.87;;;9.50;;
71298;SDS011;59083;47.974;21.722;2023-04-09T00:31:35;17.27;;;9.60;;
71298;SDS011;59083;47.974;21.722;2023-04-09T00:34:37;18.10;;;10.23;;
71298;SDS011;59083;47.974;21.722;2023-04-09T00:37:38;16.20;;;9.25;;
71298;SDS011;59083;47.974;21.722;2023-04-09T00:40:39;17.42;;;9.40;;
71298;SDS011;59083;47.974;21.722;2023-04-09T00:43:41;16.87;;;9.20;;
71298;SDS011;59083;47.974;21.722;2023-04-09T00:46:42;18.77;;;9.43;;
71298;SDS011;59083;47.974;21.722;2023-04-09T00:49:43;16.87;;;8.80;;
71298;SDS011;59083;47.974;21.722;2023-04-09T00:52:45;17.52;;;9.40;;
71298;SDS011;59083;47.974;21.722;2023-04-09T00:55:46;15.85;;;8.70;;
71298;SDS011;59083;47.974;21.722;2023-04-09T00:58:48;16.30;;;9.23;;
71298;SDS011;59083;47.974;21.722;2023-04-09T01:01:49;18.77;;;8.93;;
71298;SDS011;59083;47.974;21.722;2023-04-09T01:04:50;15.80;;;9.00;;
71298;SDS011;59083;47.974;21.722;2023-04-09T01:18:10;16.30;;;9.00;;
71298;SDS011;59083;47.974;21.722;2023-04-09T01:21:19;15.68;;;8.35;;
71298;SDS011;59083;47.974;21.722;2023-04-09T01:24:39;16.00;;;8.98;;
71298;SDS011;59083;47.974;21.722;2023-04-09T01:31:06;16.43;;;9.17;;
71298;SDS011;59083;47.974;21.722;2023-04-09T01:34:13;14.70;;;9.07;;
71298;SDS011;59083;47.974;21.722;2023-04-09T01:37:16;15.93;;;8.75;;
71298;SDS011;59083;47.974;21.722;2023-04-09T01:40:19;16.67;;;9.25;;
71298;SDS011;59083;47.974;21.722;2023-04-09T01:43:20;16.60;;;8.40;;
71298;SDS011;59083;47.974;21.722;2023-04-09T01:46:22;17.03;;;9.40;;
71298;SDS011;59083;47.974;21.722;2023-04-09T01:49:25;15.57;;;8.80;;
71298;SDS011;59083;47.974;21.722;2023-04-09T01:52:27;16.65;;;8.75;;
71298;SDS011;59083;47.974;21.722;2023-04-09T01:55:29;16.33;;;8.57;;
71298;SDS011;59083;47.974;21.722;2023-04-09T01:58:30;16.17;;;9.23;;
71298;SDS011;59083;47.974;21.722;2023-04-09T02:01:35;15.57;;;8.60;;
71298;SDS011;59083;47.974;21.722;2023-04-09T02:04:43;17.90;;;8.87;;
71298;SDS011;59083;47.974;21.722;2023-04-09T02:07:50;16.08;;;8.80;;
71298;SDS011;59083;47.974;21.722;2023-04-09T02:10:57;16.45;;;8.60;;
71298;SDS011;59083;47.974;21.722;2023-04-09T02:13:59;17.08;;;8.55;;
71298;SDS011;59083;47.974;21.722;2023-04-09T02:17:03;17.83;;;9.23;;
71298;SDS011;59083;47.974;21.722;2023-04-09T02:20:04;15.73;;;8.70;;
71298;SDS011;59083;47.974;21.722;2023-04-09T02:23:06;16.77;;;9.18;;
71298;SDS011;59083;47.974;21.722;2023-04-09T02:26:07;17.37;;;9.27;;
71298;SDS011;59083;47.974;21.722;2023-04-09T02:29:09;16.90;;;9.30;;
71298;SDS011;59083;47.974;21.722;2023-04-09T02:32:10;16.93;;;8.63;;
71298;SDS011;59083;47.974;21.722;2023-04-09T02:35:11;18.10;;;8.70;;
71298;SDS011;59083;47.974;21.722;2023-04-09T02:38:12;18.92;;;9.55;;
71298;SDS011;59083;47.974;21.722;2023-04-09T02:41:15;16.83;;;8.88;;
71298;SDS011;59083;47.974;21.722;2023-04-09T02:44:16;16.80;;;8.80;;
71298;SDS011;59083;47.974;21.722;2023-04-09T02:47:18;20.37;;;9.10;;
71298;SDS011;59083;47.974;21.722;2023-04-09T02:50:19;19.10;;;8.93;;
71298;SDS011;59083;47.974;21.722;2023-04-09T02:53:21;19.40;;;9.13;;
71298;SDS011;59083;47.974;21.722;2023-04-09T02:56:23;17.25;;;9.60;;
71298;SDS011;59083;47.974;21.722;2023-04-09T02:59:24;17.50;;;9.18;;
71298;SDS011;59083;47.974;21.722;2023-04-09T03:02:25;18.97;;;10.10;;
71298;SDS011;59083;47.974;21.722;2023-04-09T03:05:26;18.90;;;8.83;;
71298;SDS011;59083;47.974;21.722;2023-04-09T03:08:28;17.42;;;9.20;;
71298;SDS011;59083;47.974;21.722;2023-04-09T03:11:29;15.45;;;8.48;;
71298;SDS011;59083;47.974;21.722;2023-04-09T03:14:30;20.00;;;10.20;;
71298;SDS011;59083;47.974;21.722;2023-04-09T03:17:31;20.37;;;9.93;;
71298;SDS011;59083;47.974;21.722;2023-04-09T03:20:32;21.83;;;9.53;;
71298;SDS011;59083;47.974;21.722;2023-04-09T03:23:37;18.45;;;9.65;;
71298;SDS011;59083;47.974;21.722;2023-04-09T03:26:39;18.30;;;10.07;;
71298;SDS011;59083;47.974;21.722;2023-04-09T03:29:41;19.70;;;10.07;;
71298;SDS011;59083;47.974;21.722;2023-04-09T03:32:42;19.57;;;9.10;;
71298;SDS011;59083;47.974;21.722;2023-04-09T03:35:45;21.90;;;9.70;;
71298;SDS011;59083;47.974;21.722;2023-04-09T03:38:46;18.92;;;10.02;;
71298;SDS011;59083;47.974;21.722;2023-04-09T03:41:54;19.52;;;10.10;;
71298;SDS011;59083;47.974;21.722;2023-04-09T03:44:58;22.52;;;10.40;;
71298;SDS011;59083;47.974;21.722;2023-04-09T03:48:00;20.27;;;10.20;;
71298;SDS011;59083;47.974;21.722;2023-04-09T03:51:02;21.40;;;10.47;;
71298;SDS011;59083;47.974;21.722;2023-04-09T03:54:04;19.77;;;10.50;;
71298;SDS011;59083;47.974;21.722;2023-04-09T03:57:06;21.60;;;10.32;;
71298;SDS011;59083;47.974;21.722;2023-04-09T04:00:08;23.52;;;10.50;;
71298;SDS011;59083;47.974;21.722;2023-04-09T04:03:12;20.40;;;10.00;;
71298;SDS011;59083;47.974;21.722;2023-04-09T04:06:15;21.67;;;10.57;;
71298;SDS011;59083;47.974;21.722;2023-04-09T04:09:17;20.75;;;10.43;;
71298;SDS011;59083;47.974;21.722;2023-04-09T04:12:19;21.67;;;11.10;;
71298;SDS011;59083;47.974;21.722;2023-04-09T04:15:21;24.58;;;11.35;;
71298;SDS011;59083;47.974;21.722;2023-04-09T04:18:23;21.50;;;10.40;;
71298;SDS011;59083;47.974;21.722;2023-04-09T04:21:25;21.53;;;10.83;;
71298;SDS011;59083;47.974;21.722;2023-04-09T04:24:28;21.80;;;11.12;;
71298;SDS011;59083;47.974;21.722;2023-04-09T04:27:29;22.85;;;11.45;;
71298;SDS011;59083;47.974;21.722;2023-04-09T04:30:31;20.77;;;10.80;;
71298;SDS011;59083;47.974;21.722;2023-04-09T04:33:32;21.47;;;11.17;;
71298;SDS011;59083;47.974;21.722;2023-04-09T04:36:35;21.47;;;11.00;;
71298;SDS011;59083;47.974;21.722;2023-04-09T04:39:37;22.10;;;10.93;;
71298;SDS011;59083;47.974;21.722;2023-04-09T04:42:40;22.62;;;11.50;;
71298;SDS011;59083;47.974;21.722;2023-04-09T04:45:42;22.17;;;11.20;;
71298;SDS011;59083;47.974;21.722;2023-04-09T04:48:44;20.63;;;10.97;;
71298;SDS011;59083;47.974;21.722;2023-04-09T04:51:45;22.63;;;11.43;;
71298;SDS011;59083;47.974;21.722;2023-04-09T04:54:47;23.42;;;11.38;;
71298;SDS011;59083;47.974;21.722;2023-04-09T04:57:50;23.30;;;11.12;;
71298;SDS011;59083;47.974;21.722;2023-04-09T05:00:54;22.10;;;11.00;;
71298;SDS011;59083;47.974;21.722;2023-04-09T05:03:55;20.97;;;10.60;;
71298;SDS011;59083;47.974;21.722;2023-04-09T05:06:57;24.53;;;11.93;;
71298;SDS011;59083;47.974;21.722;2023-04-09T05:09:59;22.50;;;11.30;;
71298;SDS011;59083;47.974;21.722;2023-04-09T05:13:06;24.30;;;11.88;;
71298;SDS011;59083;47.974;21.722;2023-04-09T05:16:07;25.33;;;11.73;;
71298;SDS011;59083;47.974;21.722;2023-04-09T05:19:17;22.60;;;10.70;;
71298;SDS011;59083;47.974;21.722;2023-04-09T05:22:18;21.17;;;11.37;;
71298;SDS011;59083;47.974;21.722;2023-04-09T05:25:20;19.52;;;11.27;;
71298;SDS011;59083;47.974;21.722;2023-04-09T05:28:22;22.58;;;11.85;;
71298;SDS011;59083;47.974;21.722;2023-04-09T05:31:25;23.65;;;12.15;;
71298;SDS011;59083;47.974;21.722;2023-04-09T05:34:27;24.90;;;11.53;;
71298;SDS011;59083;47.974;21.722;2023-04-09T05:37:29;20.30;;;10.47;;
71298;SDS011;59083;47.974;21.722;2023-04-09T05:40:30;21.80;;;10.88;;
71298;SDS011;59083;47.974;21.722;2023-04-09T05:43:32;16.62;;;9.95;;
71298;SDS011;59083;47.974;21.722;2023-04-09T05:46:33;19.00;;;10.13;;
71298;SDS011;59083;47.974;21.722;2023-04-09T05:49:34;23.37;;;12.70;;
71298;SDS011;59083;47.974;21.722;2023-04-09T05:52:36;18.90;;;10.07;;
71298;SDS011;59083;47.974;21.722;2023-04-09T05:55:38;17.50;;;10.48;;
71298;SDS011;59083;47.974;21.722;2023-04-09T05:58:40;16.25;;;9.48;;
71298;SDS011;59083;47.974;21.722;2023-04-09T06:01:42;18.67;;;10.45;;
71298;SDS011;59083;47.974;21.722;2023-04-09T06:04:43;17.83;;;10.27;;
71298;SDS011;59083;47.974;21.722;2023-04-09T06:07:44;18.10;;;9.90;;
71298;SDS011;59083;47.974;21.722;2023-04-09T06:10:46;17.65;;;9.52;;
71298;SDS011;59083;47.974;21.722;2023-04-09T06:13:47;18.62;;;10.07;;
71298;SDS011;59083;47.974;21.722;2023-04-09T06:16:48;17.70;;;10.50;;
71298;SDS011;59083;47.974;21.722;2023-04-09T06:19:49;16.47;;;9.60;;
71298;SDS011;59083;47.974;21.722;2023-04-09T06:22:51;15.73;;;9.00;;
71298;SDS011;59083;47.974;21.722;2023-04-09T06:25:52;18.33;;;10.45;;
71298;SDS011;59083;47.974;21.722;2023-04-09T06:28:53;17.58;;;9.57;;
71298;SDS011;59083;47.974;21.722;2023-04-09T06:31:54;17.92;;;10.15;;
71298;SDS011;59083;47.974;21.722;2023-04-09T06:34:56;18.12;;;9.65;;
71298;SDS011;59083;47.974;21.722;2023-04-09T06:37:57;17.83;;;10.00;;
71298;SDS011;59083;47.974;21.722;2023-04-09T06:40:58;19.20;;;10.80;;
71298;SDS011;59083;47.974;21.722;2023-04-09T06:43:59;18.00;;;9.95;;
71298;SDS011;59083;47.974;21.722;2023-04-09T06:47:01;18.05;;;9.93;;
71298;SDS011;59083;47.974;21.722;2023-04-09T06:50:02;17.60;;;9.90;;
71298;SDS011;59083;47.974;21.722;2023-04-09T06:53:05;18.07;;;9.97;;
71298;SDS011;59083;47.974;21.722;2023-04-09T06:56:06;19.60;;;10.45;;
71298;SDS011;59083;47.974;21.722;2023-04-09T06:59:08;15.82;;;9.05;;
71298;SDS011;59083;47.974;21.722;2023-04-09T07:02:09;16.42;;;9.02;;
71298;SDS011;59083;47.974;21.722;2023-04-09T07:05:10;15.30;;;9.40;;
71298;SDS011;59083;47.974;21.722;2023-04-09T07:08:11;17.90;;;10.23;;
71298;SDS011;59083;47.974;21.722;2023-04-09T07:11:13;14.70;;;8.90;;
71298;SDS011;59083;47.974;21.722;2023-04-09T07:14:16;15.82;;;9.40;;
71298;SDS011;59083;47.974;21.722;2023-04-09T07:17:17;14.60;;;8.35;;
71298;SDS011;59083;47.974;21.722;2023-04-09T07:20:19;15.48;;;8.57;;
71298;SDS011;59083;47.974;21.722;2023-04-09T07:23:20;13.97;;;8.70;;
71298;SDS011;59083;47.974;21.722;2023-04-09T07:26:22;15.57;;;8.90;;
71298;SDS011;59083;47.974;21.722;2023-04-09T07:29:23;15.10;;;8.55;;
71298;SDS011;59083;47.974;21.722;2023-04-09T07:32:24;14.20;;;8.65;;
71298;SDS011;59083;47.974;21.722;2023-04-09T07:35:30;14.47;;;8.30;;
71298;SDS011;59083;47.974;21.722;2023-04-09T07:38:32;15.07;;;8.90;;
71298;SDS011;59083;47.974;21.722;2023-04-09T07:41:34;14.40;;;8.23;;
71298;SDS011;59083;47.974;21.722;2023-04-09T07:44:36;14.43;;;8.68;;
71298;SDS011;59083;47.974;21.722;2023-04-09T07:47:38;13.43;;;7.78;;
71298;SDS011;59083;47.974;21.722;2023-04-09T07:50:40;12.63;;;7.90;;
71298;SDS011;59083;47.974;21.722;2023-04-09T07:53:42;13.53;;;8.30;;
71298;SDS011;59083;47.974;21.722;2023-04-09T07:56:43;15.15;;;8.63;;
71298;SDS011;59083;47.974;21.722;2023-04-09T07:59:44;12.60;;;7.82;;
71298;SDS011;59083;47.974;21.722;2023-04-09T08:02:46;13.73;;;8.07;;
71298;SDS011;59083;47.974;21.722;2023-04-09T08:05:47;15.17;;;8.30;;
71298;SDS011;59083;47.974;21.722;2023-04-09T08:08:48;13.27;;;7.73;;
71298;SDS011;59083;47.974;21.722;2023-04-09T08:11:50;12.27;;;7.25;;
71298;SDS011;59083;47.974;21.722;2023-04-09T08:14:51;13.18;;;7.55;;
71298;SDS011;59083;47.974;21.722;2023-04-09T08:17:52;15.05;;;8.55;;
71298;SDS011;59083;47.974;21.722;2023-04-09T08:20:54;12.20;;;7.37;;
71298;SDS011;59083;47.974;21.722;2023-04-09T08:23:56;13.63;;;8.13;;
71298;SDS011;59083;47.974;21.722;2023-04-09T08:27:00;14.02;;;7.97;;
71298;SDS011;59083;47.974;21.722;2023-04-09T08:30:02;13.02;;;7.97;;
71298;SDS011;59083;47.974;21.722;2023-04-09T08:33:04;14.52;;;8.40;;
71298;SDS011;59083;47.974;21.722;2023-04-09T08:36:08;12.93;;;8.20;;
71298;SDS011;59083;47.974;21.722;2023-04-09T08:39:11;13.03;;;7.87;;
71298;SDS011;59083;47.974;21.722;2023-04-09T08:42:12;12.70;;;7.90;;
71298;SDS011;59083;47.974;21.722;2023-04-09T08:45:14;13.05;;;8.20;;
71298;SDS011;59083;47.974;21.722;2023-04-09T08:48:17;12.88;;;7.75;;
71298;SDS011;59083;47.974;21.722;2023-04-09T08:51:19;11.83;;;7.60;;
71298;SDS011;59083;47.974;21.722;2023-04-09T08:54:21;13.93;;;8.10;;
71298;SDS011;59083;47.974;21.722;2023-04-09T08:57:26;14.00;;;8.63;;
71298;SDS011;59083;47.974;21.722;2023-04-09T09:00:27;13.60;;;8.27;;
71298;SDS011;59083;47.974;21.722;2023-04-09T09:03:29;14.85;;;8.73;;
71298;SDS011;59083;47.974;21.722;2023-04-09T09:06:37;13.85;;;8.02;;
71298;SDS011;59083;47.974;21.722;2023-04-09T09:09:53;14.13;;;8.23;;
71298;SDS011;59083;47.974;21.722;2023-04-09T09:12:58;14.40;;;8.05;;
71298;SDS011;59083;47.974;21.722;2023-04-09T09:16:12;14.00;;;8.70;;
71298;SDS011;59083;47.974;21.722;2023-04-09T09:22:49;20.00;;;9.70;;
71298;SDS011;59083;47.974;21.722;2023-04-09T09:25:54;15.07;;;9.00;;
71298;SDS011;59083;47.974;21.722;2023-04-09T09:28:56;14.52;;;8.70;;
71298;SDS011;59083;47.974;21.722;2023-04-09T09:32:01;15.38;;;9.02;;
71298;SDS011;59083;47.974;21.722;2023-04-09T09:35:02;14.38;;;8.73;;
71298;SDS011;59083;47.974;21.722;2023-04-09T09:38:06;15.00;;;8.63;;
71298;SDS011;59083;47.974;21.722;2023-04-09T09:41:16;13.63;;;8.13;;
71298;SDS011;59083;47.974;21.722;2023-04-09T09:44:31;15.30;;;8.60;;
71298;SDS011;59083;47.974;21.722;2023-04-09T09:47:33;13.62;;;8.40;;
71298;SDS011;59083;47.974;21.722;2023-04-09T09:50:34;14.48;;;8.57;;
71298;SDS011;59083;47.974;21.722;2023-04-09T09:53:38;14.23;;;8.30;;
71298;SDS011;59083;47.974;21.722;2023-04-09T09:56:41;15.43;;;8.90;;
71298;SDS011;59083;47.974;21.722;2023-04-09T09:59:46;15.38;;;8.32;;
71298;SDS011;59083;47.974;21.722;2023-04-09T10:02:58;15.73;;;9.27;;
71298;SDS011;59083;47.974;21.722;2023-04-09T10:06:06;16.00;;;9.43;;
71298;SDS011;59083;47.974;21.722;2023-04-09T10:09:08;15.80;;;8.53;;
71298;SDS011;59083;47.974;21.722;2023-04-09T10:12:10;16.90;;;9.80;;
71298;SDS011;59083;47.974;21.722;2023-04-09T10:15:12;16.25;;;9.07;;
71298;SDS011;59083;47.974;21.722;2023-04-09T10:18:14;15.52;;;9.07;;
71298;SDS011;59083;47.974;21.722;2023-04-09T10:21:21;16.17;;;9.10;;
71298;SDS011;59083;47.974;21.722;2023-04-09T10:24:24;14.43;;;8.93;;
71298;SDS011;59083;47.974;21.722;2023-04-09T10:27:25;15.27;;;8.80;;
71298;SDS011;59083;47.974;21.722;2023-04-09T10:30:31;16.00;;;8.90;;
71298;SDS011;59083;47.974;21.722;2023-04-09T10:33:35;14.27;;;8.98;;
71298;SDS011;59083;47.974;21.722;2023-04-09T10:36:37;14.85;;;9.35;;
71298;SDS011;59083;47.974;21.722;2023-04-09T10:39:39;15.60;;;8.88;;
71298;SDS011;59083;47.974;21.722;2023-04-09T10:42:44;14.87;;;8.90;;
71298;SDS011;59083;47.974;21.722;2023-04-09T10:45:47;14.10;;;8.40;;
71298;SDS011;59083;47.974;21.722;2023-04-09T10:52:35;15.68;;;9.23;;
71298;SDS011;59083;47.974;21.722;2023-04-09T10:55:41;15.10;;;9.13;;
71298;SDS011;59083;47.974;21.722;2023-04-09T10:58:49;14.27;;;8.60;;
71298;SDS011;59083;47.974;21.722;2023-04-09T11:01:53;15.85;;;8.90;;
71298;SDS011;59083;47.974;21.722;2023-04-09T11:08:17;19.85;;;9.05;;
71298;SDS011;59083;47.974;21.722;2023-04-09T11:11:24;14.50;;;9.40;;
71298;SDS011;59083;47.974;21.722;2023-04-09T11:14:26;16.27;;;9.43;;
71298;SDS011;59083;47.974;21.722;2023-04-09T11:17:27;15.00;;;9.23;;
71298;SDS011;59083;47.974;21.722;2023-04-09T11:20:28;16.27;;;9.63;;
71298;SDS011;59083;47.974;21.722;2023-04-09T11:23:31;16.17;;;9.77;;
71298;SDS011;59083;47.974;21.722;2023-04-09T11:26:36;13.90;;;8.40;;
71298;SDS011;59083;47.974;21.722;2023-04-09T11:29:37;15.07;;;8.67;;
71298;SDS011;59083;47.974;21.722;2023-04-09T11:32:39;16.92;;;9.18;;
71298;SDS011;59083;47.974;21.722;2023-04-09T11:35:40;14.73;;;9.65;;
71298;SDS011;59083;47.974;21.722;2023-04-09T11:38:42;13.75;;;8.65;;
71298;SDS011;59083;47.974;21.722;2023-04-09T11:41:43;14.83;;;9.10;;
71298;SDS011;59083;47.974;21.722;2023-04-09T11:44:44;14.83;;;9.00;;
71298;SDS011;59083;47.974;21.722;2023-04-09T11:47:46;18.60;;;8.40;;
71298;SDS011;59083;47.974;21.722;2023-04-09T11:50:48;14.77;;;8.10;;
71298;SDS011;59083;47.974;21.722;2023-04-09T11:53:50;14.40;;;8.43;;
71298;SDS011;59083;47.974;21.722;2023-04-09T11:56:51;15.10;;;8.23;;
71298;SDS011;59083;47.974;21.722;2023-04-09T11:59:55;13.00;;;7.80;;
71298;SDS011;59083;47.974;21.722;2023-04-09T12:02:58;13.85;;;8.35;;
71298;SDS011;59083;47.974;21.722;2023-04-09T12:06:02;14.30;;;8.85;;
71298;SDS011;59083;47.974;21.722;2023-04-09T12:09:07;14.68;;;8.30;;
71298;SDS011;59083;47.974;21.722;2023-04-09T12:12:08;14.50;;;8.00;;
71298;SDS011;59083;47.974;21.722;2023-04-09T12:15:20;14.40;;;8.23;;
71298;SDS011;59083;47.974;21.722;2023-04-09T12:18:25;14.82;;;8.15;;
71298;SDS011;59083;47.974;21.722;2023-04-09T12:21:43;12.65;;;7.87;;
71298;SDS011;59083;47.974;21.722;2023-04-09T12:24:46;14.50;;;8.23;;
71298;SDS011;59083;47.974;21.722;2023-04-09T12:27:47;15.38;;;8.23;;
71298;SDS011;59083;47.974;21.722;2023-04-09T12:30:49;14.30;;;8.00;;
71298;SDS011;59083;47.974;21.722;2023-04-09T12:33:50;13.85;;;8.10;;
71298;SDS011;59083;47.974;21.722;2023-04-09T12:36:51;13.77;;;8.30;;
71298;SDS011;59083;47.974;21.722;2023-04-09T12:39:53;13.43;;;7.78;;
71298;SDS011;59083;47.974;21.722;2023-04-09T12:42:54;13.63;;;7.07;;
71298;SDS011;59083;47.974;21.722;2023-04-09T12:45:56;14.03;;;7.90;;
71298;SDS011;59083;47.974;21.722;2023-04-09T12:48:57;12.82;;;7.97;;
71298;SDS011;59083;47.974;21.722;2023-04-09T12:51:58;12.50;;;7.43;;
71298;SDS011;59083;47.974;21.722;2023-04-09T12:55:00;13.75;;;8.02;;
71298;SDS011;59083;47.974;21.722;2023-04-09T12:58:01;12.95;;;7.93;;
71298;SDS011;59083;47.974;21.722;2023-04-09T13:01:03;13.77;;;8.00;;
71298;SDS011;59083;47.974;21.722;2023-04-09T13:04:04;13.43;;;7.45;;
71298;SDS011;59083;47.974;21.722;2023-04-09T13:07:06;13.73;;;7.82;;
71298;SDS011;59083;47.974;21.722;2023-04-09T13:10:07;12.85;;;7.57;;
71298;SDS011;59083;47.974;21.722;2023-04-09T13:13:09;13.55;;;7.55;;
71298;SDS011;59083;47.974;21.722;2023-04-09T13:16:12;12.50;;;7.27;;
71298;SDS011;59083;47.974;21.722;2023-04-09T13:19:14;13.43;;;7.75;;
71298;SDS011;59083;47.974;21.722;2023-04-09T13:22:15;12.90;;;7.55;;
71298;SDS011;59083;47.974;21.722;2023-04-09T13:25:16;12.85;;;7.68;;
71298;SDS011;59083;47.974;21.722;2023-04-09T13:28:17;12.85;;;7.45;;
71298;SDS011;59083;47.974;21.722;2023-04-09T13:31:19;13.87;;;7.57;;
71298;SDS011;59083;47.974;21.722;2023-04-09T13:34:20;13.73;;;7.90;;
71298;SDS011;59083;47.974;21.722;2023-04-09T13:37:21;14.45;;;7.57;;
71298;SDS011;59083;47.974;21.722;2023-04-09T13:40:22;12.60;;;7.90;;
71298;SDS011;59083;47.974;21.722;2023-04-09T13:43:24;13.10;;;7.62;;
71298;SDS011;59083;47.974;21.722;2023-04-09T13:46:27;12.67;;;7.20;;
71298;SDS011;59083;47.974;21.722;2023-04-09T13:49:29;12.73;;;7.68;;
71298;SDS011;59083;47.974;21.722;2023-04-09T13:52:30;12.20;;;7.65;;
71298;SDS011;59083;47.974;21.722;2023-04-09T13:55:32;13.23;;;7.80;;
71298;SDS011;59083;47.974;21.722;2023-04-09T13:58:33;13.77;;;7.20;;
71298;SDS011;59083;47.974;21.722;2023-04-09T14:01:34;13.23;;;7.67;;
71298;SDS011;59083;47.974;21.722;2023-04-09T14:04:36;12.60;;;7.68;;
71298;SDS011;59083;47.974;21.722;2023-04-09T14:07:37;12.73;;;7.70;;
71298;SDS011;59083;47.974;21.722;2023-04-09T14:10:38;12.35;;;7.43;;
71298;SDS011;59083;47.974;21.722;2023-04-09T14:13:39;11.20;;;6.57;;
71298;SDS011;59083;47.974;21.722;2023-04-09T14:16:41;11.50;;;6.83;;
71298;SDS011;59083;47.974;21.722;2023-04-09T14:19:42;12.88;;;7.45;;
71298;SDS011;59083;47.974;21.722;2023-04-09T14:22:43;12.27;;;6.55;;
71298;SDS011;59083;47.974;21.722;2023-04-09T14:25:48;12.10;;;7.35;;
71298;SDS011;59083;47.974;21.722;2023-04-09T14:28:50;12.13;;;7.03;;
71298;SDS011;59083;47.974;21.722;2023-04-09T14:31:51;12.20;;;7.20;;
71298;SDS011;59083;47.974;21.722;2023-04-09T14:34:52;12.45;;;7.10;;
71298;SDS011;59083;47.974;21.722;2023-04-09T14:37:53;12.43;;;6.70;;
71298;SDS011;59083;47.974;21.722;2023-04-09T14:40:55;12.15;;;6.62;;
71298;SDS011;59083;47.974;21.722;2023-04-09T14:43:56;12.77;;;7.30;;
71298;SDS011;59083;47.974;21.722;2023-04-09T14:46:57;12.00;;;6.57;;
71298;SDS011;59083;47.974;21.722;2023-04-09T14:49:59;11.45;;;6.60;;
71298;SDS011;59083;47.974;21.722;2023-04-09T14:53:01;12.27;;;7.22;;
71298;SDS011;59083;47.974;21.722;2023-04-09T14:56:03;12.07;;;7.50;;
71298;SDS011;59083;47.974;21.722;2023-04-09T14:59:05;13.50;;;7.20;;
71298;SDS011;59083;47.974;21.722;2023-04-09T15:02:06;12.23;;;6.97;;
71298;SDS011;59083;47.974;21.722;2023-04-09T15:05:08;12.45;;;6.85;;
71298;SDS011;59083;47.974;21.722;2023-04-09T15:08:09;11.07;;;6.45;;
71298;SDS011;59083;47.974;21.722;2023-04-09T15:11:14;12.25;;;7.10;;
71298;SDS011;59083;47.974;21.722;2023-04-09T15:14:15;12.48;;;6.95;;
71298;SDS011;59083;47.974;21.722;2023-04-09T15:17:17;11.90;;;6.97;;
71298;SDS011;59083;47.974;21.722;2023-04-09T15:20:18;13.18;;;7.30;;
71298;SDS011;59083;47.974;21.722;2023-04-09T15:23:19;11.95;;;7.32;;
71298;SDS011;59083;47.974;21.722;2023-04-09T15:26:21;12.18;;;6.87;;
71298;SDS011;59083;47.974;21.722;2023-04-09T15:29:22;12.00;;;7.00;;
71298;SDS011;59083;47.974;21.722;2023-04-09T15:32:23;14.10;;;6.70;;
71298;SDS011;59083;47.974;21.722;2023-04-09T15:35:24;12.60;;;7.00;;
71298;SDS011;59083;47.974;21.722;2023-04-09T15:38:28;11.68;;;6.50;;
71298;SDS011;59083;47.974;21.722;2023-04-09T15:41:30;12.30;;;6.95;;
71298;SDS011;59083;47.974;21.722;2023-04-09T15:44:32;12.73;;;6.77;;
71298;SDS011;59083;47.974;21.722;2023-04-09T15:47:33;12.13;;;6.80;;
71298;SDS011;59083;47.974;21.722;2023-04-09T15:50:34;11.52;;;6.72;;
71298;SDS011;59083;47.974;21.722;2023-04-09T15:53:36;12.00;;;6.62;;
71298;SDS011;59083;47.974;21.722;2023-04-09T15:56:37;11.20;;;6.37;;
71298;SDS011;59083;47.974;21.722;2023-04-09T15:59:40;12.15;;;6.12;;
71298;SDS011;59083;47.974;21.722;2023-04-09T16:02:41;11.03;;;6.40;;
71298;SDS011;59083;47.974;21.722;2023-04-09T16:05:42;10.18;;;5.70;;
71298;SDS011;59083;47.974;21.722;2023-04-09T16:08:43;12.13;;;6.40;;
71298;SDS011;59083;47.974;21.722;2023-04-09T16:11:45;11.93;;;6.07;;
71298;SDS011;59083;47.974;21.722;2023-04-09T16:14:46;12.63;;;6.40;;
71298;SDS011;59083;47.974;21.722;2023-04-09T16:17:47;11.40;;;6.30;;
71298;SDS011;59083;47.974;21.722;2023-04-09T16:20:52;10.00;;;5.65;;
71298;SDS011;59083;47.974;21.722;2023-04-09T16:23:54;12.50;;;6.20;;
71298;SDS011;59083;47.974;21.722;2023-04-09T16:26:55;12.60;;;6.22;;
71298;SDS011;59083;47.974;21.722;2023-04-09T16:29:56;11.25;;;6.72;;
71298;SDS011;59083;47.974;21.722;2023-04-09T16:32:57;11.57;;;6.83;;
71298;SDS011;59083;47.974;21.722;2023-04-09T16:35:59;12.32;;;6.85;;
71298;SDS011;59083;47.974;21.722;2023-04-09T16:39:00;10.60;;;6.30;;
71298;SDS011;59083;47.974;21.722;2023-04-09T16:42:01;11.43;;;6.30;;
71298;SDS011;59083;47.974;21.722;2023-04-09T16:45:03;12.05;;;6.45;;
71298;SDS011;59083;47.974;21.722;2023-04-09T16:48:05;11.63;;;6.40;;
71298;SDS011;59083;47.974;21.722;2023-04-09T16:51:11;12.02;;;6.53;;
71298;SDS011;59083;47.974;21.722;2023-04-09T16:54:12;12.55;;;6.80;;
71298;SDS011;59083;47.974;21.722;2023-04-09T16:57:13;13.32;;;6.53;;
71298;SDS011;59083;47.974;21.722;2023-04-09T17:00:15;11.50;;;6.82;;
71298;SDS011;59083;47.974;21.722;2023-04-09T17:03:17;14.33;;;6.63;;
71298;SDS011;59083;47.974;21.722;2023-04-09T17:06:19;12.13;;;6.30;;
71298;SDS011;59083;47.974;21.722;2023-04-09T17:09:20;11.95;;;6.07;;
71298;SDS011;59083;47.974;21.722;2023-04-09T17:12:21;12.63;;;6.55;;
71298;SDS011;59083;47.974;21.722;2023-04-09T17:15:24;11.50;;;6.23;;
71298;SDS011;59083;47.974;21.722;2023-04-09T17:18:25;13.77;;;6.77;;
71298;SDS011;59083;47.974;21.722;2023-04-09T17:21:26;11.50;;;6.07;;
71298;SDS011;59083;47.974;21.722;2023-04-09T17:24:28;11.75;;;6.40;;
71298;SDS011;59083;47.974;21.722;2023-04-09T17:27:29;12.25;;;6.15;;
71298;SDS011;59083;47.974;21.722;2023-04-09T17:30:32;12.57;;;6.63;;
71298;SDS011;59083;47.974;21.722;2023-04-09T17:33:34;13.80;;;6.90;;
71298;SDS011;59083;47.974;21.722;2023-04-09T17:36:35;14.00;;;6.97;;
71298;SDS011;59083;47.974;21.722;2023-04-09T17:39:37;13.07;;;7.22;;
71298;SDS011;59083;47.974;21.722;2023-04-09T17:42:38;15.52;;;7.85;;
71298;SDS011;59083;47.974;21.722;2023-04-09T17:45:39;13.50;;;7.45;;
71298;SDS011;59083;47.974;21.722;2023-04-09T17:48:42;14.87;;;8.10;;
71298;SDS011;59083;47.974;21.722;2023-04-09T17:51:43;15.55;;;7.68;;
71298;SDS011;59083;47.974;21.722;2023-04-09T17:54:45;14.02;;;7.85;;
71298;SDS011;59083;47.974;21.722;2023-04-09T17:57:46;16.30;;;8.18;;
71298;SDS011;59083;47.974;21.722;2023-04-09T18:00:48;14.00;;;7.65;;
71298;SDS011;59083;47.974;21.722;2023-04-09T18:03:49;14.87;;;8.27;;
71298;SDS011;59083;47.974;21.722;2023-04-09T18:06:50;13.98;;;7.68;;